createdAt,value
2022-08-22T00:02:19.673Z,18.10
2022-08-22T00:02:46.944Z,19.20
2022-08-22T00:04:53.488Z,18.20
2022-08-22T00:07:25.657Z,18.10
2022-08-22T00:10:00.388Z,18.10
2022-08-22T00:12:33.698Z,18.00
2022-08-22T00:15:05.151Z,18.00
2022-08-22T00:17:37.760Z,18.00
2022-08-22T00:20:09.577Z,18.00
2022-08-22T00:22:41.646Z,17.90
2022-08-22T00:25:26.021Z,17.90
2022-08-22T00:27:59.599Z,17.80
2022-08-22T00:30:30.527Z,17.90
2022-08-22T00:33:00.758Z,17.90
2022-08-22T00:35:34.569Z,17.90
2022-08-22T00:38:06.499Z,17.90
2022-08-22T00:40:43.492Z,17.90
2022-08-22T00:43:35.660Z,17.90
2022-08-22T00:46:12.948Z,17.80
2022-08-22T00:48:59.870Z,17.80
2022-08-22T00:51:45.839Z,17.70
2022-08-22T00:54:18.283Z,17.60
2022-08-22T00:56:56.850Z,17.60
2022-08-22T00:59:40.030Z,17.70
2022-08-22T01:02:18.369Z,17.70
2022-08-22T01:04:59.932Z,17.70
2022-08-22T01:07:41.560Z,17.70
2022-08-22T01:10:16.228Z,17.60
2022-08-22T01:12:58.509Z,17.70
2022-08-22T01:15:28.418Z,17.70
2022-08-22T01:18:13.568Z,17.70
2022-08-22T01:20:51.599Z,17.60
2022-08-22T01:23:36.278Z,17.50
2022-08-22T01:26:22.708Z,17.40
2022-08-22T01:29:13.326Z,17.40
2022-08-22T01:32:01.497Z,17.30
2022-08-22T01:34:47.490Z,17.40
2022-08-22T01:37:30.396Z,17.40
2022-08-22T01:40:27.131Z,17.50
2022-08-22T01:43:04.090Z,17.50
2022-08-22T01:45:50.128Z,17.50
2022-08-22T01:48:23.499Z,17.40
2022-08-22T01:50:54.177Z,17.40
2022-08-22T01:53:25.866Z,17.40
2022-08-22T01:56:00.704Z,17.40
2022-08-22T01:58:31.328Z,17.30
2022-08-22T02:01:15.406Z,17.20
2022-08-22T02:03:52.636Z,17.10
2022-08-22T02:06:26.158Z,17.10
2022-08-22T02:09:04.261Z,17.20
2022-08-22T02:11:53.577Z,17.20
2022-08-22T02:14:27.500Z,17.10
2022-08-22T02:16:58.777Z,16.90
2022-08-22T02:19:32.439Z,16.80
2022-08-22T02:22:03.268Z,16.80
2022-08-22T02:24:42.829Z,16.70
2022-08-22T02:27:13.338Z,16.70
2022-08-22T02:29:44.949Z,16.70
2022-08-22T02:32:18.197Z,16.60
2022-08-22T02:34:50.959Z,16.60
2022-08-22T02:37:22.208Z,16.70
2022-08-22T02:39:54.992Z,16.80
2022-08-22T02:42:28.308Z,16.70
2022-08-22T02:45:00.236Z,16.80
2022-08-22T02:47:32.807Z,16.90
2022-08-22T02:50:06.858Z,16.90
2022-08-22T02:52:47.016Z,16.90
2022-08-22T02:55:20.278Z,16.90
2022-08-22T02:57:53.337Z,16.90
2022-08-22T03:00:32.146Z,16.90
2022-08-22T03:03:06.860Z,16.90
2022-08-22T03:05:43.599Z,16.90
2022-08-22T03:08:15.168Z,16.90
2022-08-22T03:10:47.109Z,16.90
2022-08-22T03:13:20.052Z,17.00
2022-08-22T03:15:50.739Z,16.90
2022-08-22T03:18:22.878Z,16.90
2022-08-22T03:20:53.478Z,16.90
2022-08-22T03:23:26.790Z,16.80
2022-08-22T03:25:59.957Z,16.90
2022-08-22T03:28:29.947Z,16.80
2022-08-22T03:31:00.930Z,16.70
2022-08-22T03:33:30.887Z,16.70
2022-08-22T03:36:01.588Z,16.60
2022-08-22T03:38:38.918Z,16.70
2022-08-22T03:41:32.443Z,16.80
2022-08-22T03:44:08.868Z,16.70
2022-08-22T03:47:04.351Z,16.50
2022-08-22T03:49:38.627Z,16.40
2022-08-22T03:52:19.298Z,16.20
2022-08-22T03:55:08.266Z,16.20
2022-08-22T03:58:00.636Z,16.20
2022-08-22T04:00:47.760Z,16.20
2022-08-22T04:03:39.948Z,16.20
2022-08-22T04:06:29.018Z,16.20
2022-08-22T04:09:10.312Z,16.30
2022-08-22T04:11:54.219Z,16.40
2022-08-22T04:14:40.107Z,16.50
2022-08-22T04:17:23.307Z,16.50
2022-08-22T04:20:06.638Z,16.40
2022-08-22T04:22:52.927Z,16.30
2022-08-22T04:25:25.711Z,16.30
2022-08-22T04:27:59.478Z,16.40
2022-08-22T04:30:31.657Z,16.50
2022-08-22T04:33:03.893Z,16.40
2022-08-22T04:35:34.827Z,16.40
2022-08-22T04:38:06.040Z,16.40
2022-08-22T04:40:38.619Z,16.40
2022-08-22T04:43:11.679Z,16.40
2022-08-22T04:45:43.018Z,16.60
2022-08-22T04:48:14.578Z,16.60
2022-08-22T04:50:44.858Z,16.70
2022-08-22T04:53:19.458Z,16.60
2022-08-22T04:55:52.935Z,16.70
2022-08-22T04:58:28.140Z,16.80
2022-08-22T05:00:58.997Z,16.90
2022-08-22T05:03:29.010Z,16.90
2022-08-22T05:05:58.936Z,17.00
2022-08-22T05:08:30.589Z,16.90
2022-08-22T05:11:00.979Z,16.90
2022-08-22T05:13:32.377Z,16.80
2022-08-22T05:16:04.978Z,16.80
2022-08-22T05:18:36.176Z,16.80
2022-08-22T05:21:07.453Z,16.70
2022-08-22T05:23:37.997Z,16.80
2022-08-22T05:26:08.479Z,16.90
2022-08-22T05:28:39.075Z,16.90
2022-08-22T05:31:09.308Z,17.00
2022-08-22T05:33:41.099Z,17.10
2022-08-22T05:36:10.547Z,17.10
2022-08-22T05:38:40.818Z,17.20
2022-08-22T05:41:12.319Z,17.30
2022-08-22T05:43:42.228Z,17.40
2022-08-22T05:46:14.498Z,17.50
2022-08-22T05:48:45.137Z,17.60
2022-08-22T05:51:16.749Z,17.70
2022-08-22T05:53:46.631Z,17.70
2022-08-22T05:56:20.178Z,17.90
2022-08-22T05:58:51.358Z,18.00
2022-08-22T06:01:27.098Z,18.10
2022-08-22T06:04:00.260Z,18.20
2022-08-22T06:06:29.728Z,18.30
2022-08-22T06:08:59.818Z,18.40
2022-08-22T06:11:33.927Z,18.60
2022-08-22T06:14:14.196Z,18.60
2022-08-22T06:16:47.661Z,18.80
2022-08-22T06:19:19.289Z,18.90
2022-08-22T06:21:51.155Z,19.00
2022-08-22T06:24:22.622Z,19.10
2022-08-22T06:26:54.210Z,18.90
2022-08-22T06:29:30.267Z,18.90
2022-08-22T06:31:59.381Z,18.90
2022-08-22T06:34:28.999Z,18.90
2022-08-22T06:36:58.821Z,18.80
2022-08-22T06:39:30.447Z,18.80
2022-08-22T06:42:03.018Z,18.80
2022-08-22T06:44:33.262Z,18.90
2022-08-22T06:47:02.579Z,18.90
2022-08-22T06:49:31.708Z,18.90
2022-08-22T06:52:02.058Z,18.90
2022-08-22T06:54:34.514Z,18.80
2022-08-22T06:57:05.158Z,18.80
2022-08-22T06:59:35.506Z,18.90
2022-08-22T07:02:05.730Z,18.90
2022-08-22T07:04:34.192Z,18.90
2022-08-22T07:07:03.538Z,19.00
2022-08-22T07:09:35.048Z,19.20
2022-08-22T07:12:06.382Z,19.40
2022-08-22T07:14:42.018Z,19.50
2022-08-22T07:17:17.537Z,19.60
2022-08-22T07:19:48.658Z,19.70
2022-08-22T07:22:18.248Z,19.50
2022-08-22T07:24:48.778Z,19.70
2022-08-22T07:27:24.358Z,20.20
2022-08-22T07:29:59.792Z,20.20
2022-08-22T07:32:34.818Z,20.50
2022-08-22T07:35:10.353Z,20.50
2022-08-22T07:37:46.665Z,20.60
2022-08-22T07:40:19.032Z,20.70
2022-08-22T07:42:51.111Z,20.70
2022-08-22T07:45:24.791Z,20.90
2022-08-22T07:47:59.689Z,21.10
2022-08-22T07:50:30.119Z,21.10
2022-08-22T07:53:03.439Z,21.00
2022-08-22T07:55:32.138Z,21.10
2022-08-22T07:58:04.171Z,21.20
2022-08-22T08:00:32.786Z,21.00
2022-08-22T08:03:03.879Z,21.10
2022-08-22T08:05:34.126Z,21.10
2022-08-22T08:08:06.837Z,21.20
2022-08-22T08:10:39.687Z,21.20
2022-08-22T08:13:12.637Z,21.00
2022-08-22T08:15:42.078Z,21.20
2022-08-22T08:18:12.508Z,21.30
2022-08-22T08:20:40.926Z,21.50
2022-08-22T08:23:11.514Z,21.50
2022-08-22T08:25:53.604Z,21.80
2022-08-22T08:28:43.676Z,22.00
2022-08-22T08:31:17.196Z,21.90
2022-08-22T08:33:47.646Z,21.60
2022-08-22T08:36:24.707Z,21.60
2022-08-22T08:38:56.986Z,21.80
2022-08-22T08:41:40.056Z,22.00
2022-08-22T08:44:18.146Z,21.90
2022-08-22T08:46:56.035Z,22.00
2022-08-22T08:49:42.210Z,22.20
2022-08-22T08:52:25.324Z,22.40
2022-08-22T08:54:59.490Z,22.60
2022-08-22T08:57:36.261Z,22.80
2022-08-22T09:00:11.130Z,22.80
2022-08-22T09:02:48.359Z,22.60
2022-08-22T09:05:35.768Z,22.40
2022-08-22T09:08:29.369Z,22.40
2022-08-22T09:11:09.897Z,22.60
2022-08-22T09:13:46.139Z,22.60
2022-08-22T09:16:37.369Z,22.50
2022-08-22T09:19:28.509Z,22.40
2022-08-22T09:22:06.197Z,22.40
2022-08-22T09:25:09.800Z,22.60
2022-08-22T09:27:40.012Z,23.00
2022-08-22T09:30:11.611Z,23.20
2022-08-22T09:32:48.139Z,23.00
2022-08-22T09:35:20.787Z,23.00
2022-08-22T09:37:58.602Z,22.90
2022-08-22T09:40:30.676Z,22.90
2022-08-22T09:43:04.297Z,23.10
2022-08-22T09:45:39.024Z,23.40
2022-08-22T09:48:13.825Z,23.70
2022-08-22T09:50:46.853Z,23.70
2022-08-22T09:53:31.175Z,23.70
2022-08-22T09:56:11.857Z,23.90
2022-08-22T09:58:47.080Z,23.70
2022-08-22T10:01:21.667Z,23.80
2022-08-22T10:04:05.808Z,23.70
2022-08-22T10:06:42.292Z,23.90
2022-08-22T10:09:14.023Z,24.10
2022-08-22T10:11:47.351Z,24.20
2022-08-22T10:14:22.239Z,24.10
2022-08-22T10:17:03.986Z,24.00
2022-08-22T10:19:38.536Z,23.90
2022-08-22T10:22:32.497Z,23.80
2022-08-22T10:25:20.598Z,23.80
2022-08-22T10:27:54.570Z,23.80
2022-08-22T10:30:24.110Z,23.90
2022-08-22T10:32:53.797Z,24.00
2022-08-22T10:35:26.613Z,23.90
2022-08-22T10:37:58.543Z,24.00
2022-08-22T10:40:29.361Z,24.10
2022-08-22T10:43:01.211Z,24.00
2022-08-22T10:45:36.564Z,24.10
2022-08-22T10:48:24.921Z,24.20
2022-08-22T10:50:56.740Z,24.00
2022-08-22T10:53:35.031Z,24.20
2022-08-22T10:56:13.071Z,24.30
2022-08-22T10:58:45.369Z,24.30
2022-08-22T11:01:38.573Z,24.10
2022-08-22T11:04:12.310Z,24.00
2022-08-22T11:06:45.863Z,24.00
2022-08-22T11:09:19.114Z,24.00
2022-08-22T11:11:53.645Z,24.10
2022-08-22T11:14:46.055Z,23.90
2022-08-22T11:17:31.086Z,23.90
2022-08-22T11:20:11.956Z,24.00
2022-08-22T11:22:46.314Z,24.10
2022-08-22T11:25:38.801Z,24.20
2022-08-22T11:28:28.843Z,24.20
2022-08-22T11:31:03.786Z,24.20
2022-08-22T11:33:47.220Z,24.40
2022-08-22T11:36:31.556Z,24.80
2022-08-22T11:39:13.842Z,24.90
2022-08-22T11:41:52.742Z,24.80
2022-08-22T11:44:25.839Z,24.80
2022-08-22T11:46:58.117Z,24.70
2022-08-22T11:49:44.492Z,24.80
2022-08-22T11:52:23.823Z,24.60
2022-08-22T11:55:32.151Z,24.30
2022-08-22T11:58:19.592Z,24.40
2022-08-22T12:01:11.732Z,24.70
2022-08-22T12:03:58.022Z,24.80
2022-08-22T12:06:41.921Z,24.70
2022-08-22T12:09:14.605Z,24.50
2022-08-22T12:11:53.327Z,24.40
2022-08-22T12:14:27.537Z,24.40
2022-08-22T12:17:06.117Z,24.50
2022-08-22T12:19:59.074Z,24.50
2022-08-22T12:22:50.039Z,24.70
2022-08-22T12:25:24.856Z,24.80
2022-08-22T12:28:04.493Z,24.70
2022-08-22T12:30:36.685Z,24.50
2022-08-22T12:33:23.579Z,24.40
2022-08-22T12:36:18.042Z,24.50
2022-08-22T12:39:01.803Z,24.50
2022-08-22T12:41:40.262Z,24.70
2022-08-22T12:44:22.583Z,24.70
2022-08-22T12:46:58.174Z,24.90
2022-08-22T12:49:37.134Z,25.00
2022-08-22T12:52:13.534Z,24.90
2022-08-22T12:54:55.434Z,24.90
2022-08-22T12:57:33.103Z,25.00
2022-08-22T13:00:22.809Z,24.90
2022-08-22T13:02:54.238Z,25.00
2022-08-22T13:05:24.734Z,24.90
2022-08-22T13:07:57.168Z,24.80
2022-08-22T13:10:36.019Z,24.50
2022-08-22T13:13:12.361Z,24.30
2022-08-22T13:15:44.079Z,24.30
2022-08-22T13:18:29.253Z,24.40
2022-08-22T13:20:59.672Z,24.60
2022-08-22T13:23:30.861Z,24.60
2022-08-22T13:26:07.659Z,24.70
2022-08-22T13:28:41.700Z,24.70
2022-08-22T13:31:11.200Z,24.60
2022-08-22T13:33:47.909Z,24.60
2022-08-22T13:36:20.108Z,24.80
2022-08-22T13:38:50.619Z,25.10
2022-08-22T13:41:21.530Z,25.10
2022-08-22T13:44:01.978Z,25.10
2022-08-22T13:46:31.613Z,25.10
2022-08-22T13:49:07.155Z,24.80
2022-08-22T13:51:41.448Z,24.80
2022-08-22T13:54:21.878Z,24.90
2022-08-22T13:56:54.590Z,24.90
2022-08-22T13:59:49.530Z,24.90
2022-08-22T14:02:43.200Z,24.90
2022-08-22T14:05:15.458Z,24.90
2022-08-22T14:07:48.776Z,24.80
2022-08-22T14:10:23.839Z,24.80
2022-08-22T14:13:17.728Z,24.90
2022-08-22T14:15:47.739Z,24.50
2022-08-22T14:18:30.313Z,24.60
2022-08-22T14:21:21.659Z,24.60
2022-08-22T14:23:52.018Z,24.50
2022-08-22T14:26:32.989Z,24.50
2022-08-22T14:29:07.684Z,24.50
2022-08-22T14:31:39.180Z,24.50
2022-08-22T14:34:10.737Z,24.50
2022-08-22T14:36:43.006Z,24.50
2022-08-22T14:39:17.191Z,24.40
2022-08-22T14:41:52.633Z,24.40
2022-08-22T14:44:29.678Z,24.40
2022-08-22T14:47:02.008Z,24.40
2022-08-22T14:49:38.195Z,24.30
2022-08-22T14:52:10.689Z,24.30
2022-08-22T14:54:48.450Z,24.30
2022-08-22T14:57:19.772Z,24.20
2022-08-22T14:59:50.567Z,24.20
2022-08-22T15:02:25.599Z,24.00
2022-08-22T15:04:55.278Z,24.10
2022-08-22T15:07:25.510Z,24.20
2022-08-22T15:09:55.887Z,24.20
2022-08-22T15:12:27.764Z,24.20
2022-08-22T15:14:57.408Z,24.20
2022-08-22T15:17:44.196Z,24.20
2022-08-22T15:20:15.646Z,24.20
2022-08-22T15:22:46.919Z,24.20
2022-08-22T15:25:16.707Z,24.10
2022-08-22T15:27:49.307Z,24.00
2022-08-22T15:30:20.680Z,24.00
2022-08-22T15:32:51.246Z,24.00
2022-08-22T15:35:30.187Z,24.00
2022-08-22T15:37:59.467Z,24.00
2022-08-22T15:40:40.511Z,24.00
2022-08-22T15:43:20.085Z,24.00
2022-08-22T15:45:49.615Z,23.90
2022-08-22T15:48:31.195Z,23.90
2022-08-22T15:51:01.458Z,23.90
2022-08-22T15:53:33.634Z,23.80
2022-08-22T15:56:20.338Z,23.80
2022-08-22T15:58:50.594Z,23.80
2022-08-22T16:01:22.215Z,23.80
2022-08-22T16:03:57.114Z,23.80
2022-08-22T16:06:43.068Z,23.70
2022-08-22T16:09:28.866Z,23.60
2022-08-22T16:11:58.066Z,23.60
2022-08-22T16:14:46.454Z,23.60
2022-08-22T16:17:29.576Z,23.60
2022-08-22T16:20:20.038Z,23.50
2022-08-22T16:23:07.685Z,23.40
2022-08-22T16:25:59.824Z,23.40
2022-08-22T16:28:57.722Z,23.40
2022-08-22T16:31:22.068Z,23.30
2022-08-22T16:33:51.636Z,23.20
2022-08-22T16:36:39.158Z,23.20
2022-08-22T16:39:12.394Z,23.10
2022-08-22T16:41:42.628Z,23.10
2022-08-22T16:44:17.016Z,23.00
2022-08-22T16:46:46.475Z,23.00
2022-08-22T16:49:26.905Z,23.00
2022-08-22T16:52:14.735Z,23.00
2022-08-22T16:54:44.425Z,23.00
2022-08-22T16:57:18.745Z,23.10
2022-08-22T16:59:55.925Z,23.00
2022-08-22T17:02:43.865Z,23.00
2022-08-22T17:05:20.171Z,23.00
2022-08-22T17:07:55.293Z,23.00
2022-08-22T17:10:33.268Z,23.10
2022-08-22T17:13:10.389Z,22.90
2022-08-22T17:15:47.809Z,22.90
2022-08-22T17:18:22.897Z,22.90
2022-08-22T17:20:56.788Z,22.90
2022-08-22T17:23:29.417Z,22.90
2022-08-22T17:26:01.067Z,22.80
2022-08-22T17:28:36.228Z,22.70
2022-08-22T17:31:09.711Z,22.80
2022-08-22T17:33:52.613Z,22.80
2022-08-22T17:36:26.856Z,22.80
2022-08-22T17:39:03.061Z,22.80
2022-08-22T17:41:35.962Z,22.80
2022-08-22T17:44:10.332Z,22.70
2022-08-22T17:46:45.350Z,22.70
2022-08-22T17:49:21.400Z,22.60
2022-08-22T17:51:52.780Z,22.60
2022-08-22T17:54:29.615Z,22.60
2022-08-22T17:57:05.846Z,22.60
2022-08-22T17:59:38.851Z,22.60
2022-08-22T18:02:13.622Z,22.70
2022-08-22T18:04:46.962Z,22.50
2022-08-22T18:07:33.472Z,22.40
2022-08-22T18:10:05.892Z,22.30
2022-08-22T18:12:36.780Z,22.20
2022-08-22T18:15:08.262Z,22.10
2022-08-22T18:17:40.363Z,22.10
2022-08-22T18:20:11.353Z,22.00
2022-08-22T18:22:43.762Z,22.00
2022-08-22T18:25:15.982Z,22.00
2022-08-22T18:27:48.423Z,21.90
2022-08-22T18:30:19.834Z,21.80
2022-08-22T18:32:56.000Z,21.80
2022-08-22T18:35:28.819Z,21.70
2022-08-22T18:38:00.553Z,21.80
2022-08-22T18:40:32.328Z,21.70
2022-08-22T18:43:07.355Z,21.60
2022-08-22T18:45:53.911Z,21.60
2022-08-22T18:48:27.781Z,21.50
2022-08-22T18:51:15.209Z,21.40
2022-08-22T18:53:46.702Z,21.30
2022-08-22T18:56:21.014Z,21.30
2022-08-22T18:59:05.607Z,21.30
2022-08-22T19:01:48.791Z,21.30
2022-08-22T19:04:40.072Z,21.20
2022-08-22T19:07:19.863Z,21.30
2022-08-22T19:10:00.185Z,21.30
2022-08-22T19:12:35.800Z,21.40
2022-08-22T19:15:13.797Z,21.20
2022-08-22T19:17:58.977Z,21.30
2022-08-22T19:20:47.476Z,21.30
2022-08-22T19:23:34.276Z,21.20
2022-08-22T19:26:21.184Z,21.10
2022-08-22T19:28:49.655Z,20.90
2022-08-22T19:31:23.625Z,20.80
2022-08-22T19:34:12.015Z,20.80
2022-08-22T19:36:42.046Z,20.80
2022-08-22T19:39:10.977Z,20.80
2022-08-22T19:41:42.906Z,20.70
2022-08-22T19:44:12.336Z,20.80
2022-08-22T19:46:41.997Z,20.70
2022-08-22T19:49:29.888Z,20.80
2022-08-22T19:52:11.960Z,20.60
2022-08-22T19:54:46.507Z,20.70
2022-08-22T19:57:17.237Z,20.60
2022-08-22T19:59:53.237Z,20.50
2022-08-22T20:02:26.411Z,20.50
2022-08-22T20:05:03.810Z,20.60
2022-08-22T20:07:39.797Z,20.50
2022-08-22T20:10:16.156Z,20.50
2022-08-22T20:12:50.807Z,20.70
2022-08-22T20:15:20.746Z,20.50
2022-08-22T20:20:40.038Z,20.50
2022-08-22T20:23:14.782Z,20.50
2022-08-22T20:25:44.808Z,20.60
2022-08-22T20:28:29.838Z,20.50
2022-08-22T20:30:59.423Z,20.40
2022-08-22T20:33:29.767Z,20.30
2022-08-22T20:36:00.739Z,20.30
2022-08-22T20:38:33.141Z,20.30
2022-08-22T20:41:11.820Z,20.40
2022-08-22T20:43:46.288Z,20.30
2022-08-22T20:46:24.116Z,20.40
2022-08-22T20:48:54.413Z,20.40
2022-08-22T20:51:29.013Z,20.30
2022-08-22T20:54:01.566Z,20.20
2022-08-22T20:56:48.742Z,20.30
2022-08-22T20:59:39.470Z,20.20
2022-08-22T21:02:10.422Z,20.20
2022-08-22T21:04:44.429Z,20.00
2022-08-22T21:07:12.827Z,20.10
2022-08-22T21:10:00.229Z,20.10
2022-08-22T21:12:28.710Z,20.00
2022-08-22T21:14:57.681Z,20.00
2022-08-22T21:17:34.479Z,20.10
2022-08-22T21:20:18.636Z,20.10
2022-08-22T21:22:47.075Z,20.10
2022-08-22T21:25:16.986Z,20.20
2022-08-22T21:27:48.162Z,20.10
2022-08-22T21:30:24.710Z,20.10
2022-08-22T21:32:56.256Z,20.20
2022-08-22T21:35:27.753Z,20.20
2022-08-22T21:37:57.196Z,20.50
2022-08-22T21:40:31.185Z,20.40
2022-08-22T21:43:01.806Z,20.40
2022-08-22T21:45:31.818Z,20.30
2022-08-22T21:48:00.876Z,20.20
2022-08-22T21:50:38.219Z,20.20
2022-08-22T21:53:10.150Z,20.20
2022-08-22T21:55:44.670Z,20.20
2022-08-22T21:58:36.124Z,20.10
2022-08-22T22:01:21.003Z,20.10
2022-08-22T22:03:53.326Z,20.10
2022-08-22T22:06:21.658Z,19.90
2022-08-22T22:08:50.277Z,19.80
2022-08-22T22:11:20.267Z,19.80
2022-08-22T22:13:49.187Z,20.00
2022-08-22T22:16:21.068Z,20.00
2022-08-22T22:18:49.476Z,19.90
2022-08-22T22:21:17.824Z,20.10
2022-08-22T22:23:46.207Z,20.20
2022-08-22T22:26:15.136Z,20.30
2022-08-22T22:28:47.493Z,20.20
2022-08-22T22:31:16.776Z,20.30
2022-08-22T22:33:45.797Z,20.10
2022-08-22T22:36:16.151Z,20.10
2022-08-22T22:38:44.606Z,20.20
2022-08-22T22:41:13.255Z,20.10
2022-08-22T22:43:41.635Z,20.10
2022-08-22T22:46:11.616Z,20.10
2022-08-22T22:48:40.362Z,20.20
2022-08-22T22:51:09.515Z,20.00
2022-08-22T22:53:42.709Z,19.90
2022-08-22T22:56:16.018Z,19.80
2022-08-22T22:58:44.506Z,19.80
2022-08-22T23:01:15.423Z,20.00
2022-08-22T23:03:45.106Z,20.00
2022-08-22T23:06:13.869Z,19.70
2022-08-22T23:08:42.532Z,19.70
2022-08-22T23:11:12.326Z,19.80
2022-08-22T23:13:43.009Z,19.70
2022-08-22T23:16:13.516Z,19.60
2022-08-22T23:18:43.566Z,19.50
2022-08-22T23:21:12.559Z,19.40
2022-08-22T23:23:40.906Z,19.40
2022-08-22T23:26:09.547Z,19.30
2022-08-22T23:28:37.950Z,19.20
2022-08-22T23:31:14.168Z,19.10
2022-08-22T23:33:45.107Z,19.10
2022-08-22T23:36:14.648Z,18.90
2022-08-22T23:38:42.997Z,18.90
2022-08-22T23:41:12.385Z,18.80
2022-08-22T23:43:42.876Z,18.80
2022-08-22T23:46:11.555Z,18.70
2022-08-22T23:48:39.867Z,18.70
2022-08-22T23:51:10.387Z,18.60
2022-08-22T23:53:39.236Z,18.50
2022-08-22T23:56:19.158Z,18.50
2022-08-22T23:58:49.137Z,18.50
